Freeman Township, Maine
Current Conditions -  °F | °C
As of 11:15 AM on Saturday 25 Oct 2014 (Local Time) from KWVL Reporting Station
Clear Clear  
Wind Chill: 57°   Ceiling: Unl
Heat Index: 57°   Visibility: 10mi
Dew Point: 37°   Wind: 6mph
Humidity: 48%   Direction: 300°WNW
Pressure: 29.61"   Gusts: NA
Location:  44.8564°N, 70.2117°W
Report Text: KWVL 251515Z 30005KT 10SM CLR 14/03 A2961 RMK AO1
Loading
Personal Weather Stations






























Interactive Weather Map
Tropical Storm Tracking
New forecast layout! Learn more

10-Day Weather Forecast

Advertisements
Track Severe Weather on mobile